sensor_id;sensor_type;location;lat;lon;timestamp;temperature;humidity
22532;DHT22;11432;46.924;7.114;2023-02-21T00:01:49;4.00;99.90
22532;DHT22;11432;46.924;7.114;2023-02-21T00:04:33;4.00;99.90
22532;DHT22;11432;46.924;7.114;2023-02-21T00:07:18;4.00;99.90
22532;DHT22;11432;46.924;7.114;2023-02-21T00:10:03;3.90;99.90
22532;DHT22;11432;46.924;7.114;2023-02-21T00:12:47;3.90;99.90
22532;DHT22;11432;46.924;7.114;2023-02-21T00:15:31;3.80;99.90
22532;DHT22;11432;46.924;7.114;2023-02-21T00:18:16;3.80;99.90
22532;DHT22;11432;46.924;7.114;2023-02-21T00:21:00;3.80;99.90
22532;DHT22;11432;46.924;7.114;2023-02-21T00:23:45;3.80;99.90
22532;DHT22;11432;46.924;7.114;2023-02-21T00:26:29;3.80;99.90
22532;DHT22;11432;46.924;7.114;2023-02-21T00:29:13;3.80;99.90
22532;DHT22;11432;46.924;7.114;2023-02-21T00:31:57;3.80;99.90
22532;DHT22;11432;46.924;7.114;2023-02-21T00:34:41;3.70;99.90
22532;DHT22;11432;46.924;7.114;2023-02-21T00:37:27;3.70;99.90
22532;DHT22;11432;46.924;7.114;2023-02-21T00:40:12;3.60;99.90
22532;DHT22;11432;46.924;7.114;2023-02-21T00:42:57;3.60;99.90
22532;DHT22;11432;46.924;7.114;2023-02-21T00:45:41;3.50;99.90
22532;DHT22;11432;46.924;7.114;2023-02-21T00:48:25;3.40;99.90
22532;DHT22;11432;46.924;7.114;2023-02-21T00:51:09;3.50;99.90
22532;DHT22;11432;46.924;7.114;2023-02-21T00:53:53;3.50;99.90
22532;DHT22;11432;46.924;7.114;2023-02-21T00:56:37;3.40;99.90
22532;DHT22;11432;46.924;7.114;2023-02-21T00:59:22;3.30;99.90
22532;DHT22;11432;46.924;7.114;2023-02-21T01:02:06;3.40;99.90
22532;DHT22;11432;46.924;7.114;2023-02-21T01:04:50;3.40;99.90
22532;DHT22;11432;46.924;7.114;2023-02-21T01:07:34;3.30;99.90
22532;DHT22;11432;46.924;7.114;2023-02-21T01:10:18;3.30;99.90
22532;DHT22;11432;46.924;7.114;2023-02-21T01:13:03;3.20;99.90
22532;DHT22;11432;46.924;7.114;2023-02-21T01:15:48;3.20;99.90
22532;DHT22;11432;46.924;7.114;2023-02-21T01:18:32;3.20;99.90
22532;DHT22;11432;46.924;7.114;2023-02-21T01:21:17;3.10;99.90
22532;DHT22;11432;46.924;7.114;2023-02-21T01:24:03;3.10;99.90
22532;DHT22;11432;46.924;7.114;2023-02-21T01:26:48;3.10;99.90
22532;DHT22;11432;46.924;7.114;2023-02-21T01:29:32;3.10;99.90
22532;DHT22;11432;46.924;7.114;2023-02-21T01:32:16;3.10;99.90
22532;DHT22;11432;46.924;7.114;2023-02-21T01:35:00;3.10;99.90
22532;DHT22;11432;46.924;7.114;2023-02-21T01:37:44;3.10;99.90
22532;DHT22;11432;46.924;7.114;2023-02-21T01:40:29;3.10;99.90
22532;DHT22;11432;46.924;7.114;2023-02-21T01:43:19;3.10;99.90
22532;DHT22;11432;46.924;7.114;2023-02-21T01:46:04;3.10;99.90
22532;DHT22;11432;46.924;7.114;2023-02-21T01:48:49;3.10;99.90
22532;DHT22;11432;46.924;7.114;2023-02-21T01:51:37;3.10;99.90
22532;DHT22;11432;46.924;7.114;2023-02-21T01:54:23;3.10;99.90
22532;DHT22;11432;46.924;7.114;2023-02-21T01:57:09;3.00;99.90
22532;DHT22;11432;46.924;7.114;2023-02-21T01:59:57;3.00;99.90
22532;DHT22;11432;46.924;7.114;2023-02-21T02:03:14;3.00;99.90
22532;DHT22;11432;46.924;7.114;2023-02-21T02:06:03;3.00;99.90
22532;DHT22;11432;46.924;7.114;2023-02-21T02:08:48;3.00;99.90
22532;DHT22;11432;46.924;7.114;2023-02-21T02:36:42;2.60;99.90
22532;DHT22;11432;46.924;7.114;2023-02-21T02:39:32;2.60;99.90
22532;DHT22;11432;46.924;7.114;2023-02-21T02:44:48;2.70;99.90
22532;DHT22;11432;46.924;7.114;2023-02-21T02:47:21;2.60;99.90
22532;DHT22;11432;46.924;7.114;2023-02-21T02:49:47;2.60;99.90
22532;DHT22;11432;46.924;7.114;2023-02-21T02:52:14;2.60;99.90
22532;DHT22;11432;46.924;7.114;2023-02-21T02:54:40;2.50;99.90
22532;DHT22;11432;46.924;7.114;2023-02-21T02:57:07;2.40;99.90
22532;DHT22;11432;46.924;7.114;2023-02-21T02:59:37;2.50;99.90
22532;DHT22;11432;46.924;7.114;2023-02-21T03:02:32;2.50;99.90
22532;DHT22;11432;46.924;7.114;2023-02-21T03:05:02;2.50;99.90
22532;DHT22;11432;46.924;7.114;2023-02-21T03:13:00;2.50;99.90
22532;DHT22;11432;46.924;7.114;2023-02-21T03:15:54;2.50;99.90
22532;DHT22;11432;46.924;7.114;2023-02-21T03:21:38;2.50;99.90
22532;DHT22;11432;46.924;7.114;2023-02-21T03:24:03;2.60;99.90
22532;DHT22;11432;46.924;7.114;2023-02-21T03:26:33;2.60;99.90
22532;DHT22;11432;46.924;7.114;2023-02-21T03:28:59;2.50;99.90
22532;DHT22;11432;46.924;7.114;2023-02-21T03:31:32;2.50;99.90
22532;DHT22;11432;46.924;7.114;2023-02-21T03:33:59;2.50;99.90
22532;DHT22;11432;46.924;7.114;2023-02-21T03:36:26;2.50;99.90
22532;DHT22;11432;46.924;7.114;2023-02-21T03:38:51;2.60;99.90
22532;DHT22;11432;46.924;7.114;2023-02-21T03:41:17;2.60;99.90
22532;DHT22;11432;46.924;7.114;2023-02-21T03:43:43;2.60;99.90
22532;DHT22;11432;46.924;7.114;2023-02-21T03:46:08;2.60;99.90
22532;DHT22;11432;46.924;7.114;2023-02-21T03:48:34;2.60;99.90
22532;DHT22;11432;46.924;7.114;2023-02-21T03:51:00;2.50;99.90
22532;DHT22;11432;46.924;7.114;2023-02-21T03:53:26;2.50;99.90
22532;DHT22;11432;46.924;7.114;2023-02-21T03:55:51;2.50;99.90
22532;DHT22;11432;46.924;7.114;2023-02-21T03:58:17;2.50;99.90
22532;DHT22;11432;46.924;7.114;2023-02-21T04:00:43;2.50;99.90
22532;DHT22;11432;46.924;7.114;2023-02-21T04:03:08;2.40;99.90
22532;DHT22;11432;46.924;7.114;2023-02-21T04:05:34;2.40;99.90
22532;DHT22;11432;46.924;7.114;2023-02-21T04:07:59;2.30;99.90
22532;DHT22;11432;46.924;7.114;2023-02-21T04:10:25;2.30;99.90
22532;DHT22;11432;46.924;7.114;2023-02-21T04:12:51;2.20;99.90
22532;DHT22;11432;46.924;7.114;2023-02-21T04:15:16;2.20;99.90
22532;DHT22;11432;46.924;7.114;2023-02-21T04:17:42;2.10;99.90
22532;DHT22;11432;46.924;7.114;2023-02-21T04:20:08;2.10;99.90
22532;DHT22;11432;46.924;7.114;2023-02-21T04:22:34;2.10;99.90
22532;DHT22;11432;46.924;7.114;2023-02-21T04:24:59;2.10;99.90
22532;DHT22;11432;46.924;7.114;2023-02-21T04:27:25;2.10;99.90
22532;DHT22;11432;46.924;7.114;2023-02-21T04:29:51;2.10;99.90
22532;DHT22;11432;46.924;7.114;2023-02-21T04:32:17;2.10;99.90
22532;DHT22;11432;46.924;7.114;2023-02-21T04:34:42;2.00;99.90
22532;DHT22;11432;46.924;7.114;2023-02-21T04:37:08;1.90;99.90
22532;DHT22;11432;46.924;7.114;2023-02-21T04:39:34;2.00;99.90
22532;DHT22;11432;46.924;7.114;2023-02-21T04:41:59;1.90;99.90
22532;DHT22;11432;46.924;7.114;2023-02-21T04:44:25;1.90;99.90
22532;DHT22;11432;46.924;7.114;2023-02-21T04:46:50;2.00;99.90
22532;DHT22;11432;46.924;7.114;2023-02-21T04:49:16;1.90;99.90
22532;DHT22;11432;46.924;7.114;2023-02-21T04:51:43;2.00;99.90
22532;DHT22;11432;46.924;7.114;2023-02-21T04:54:08;2.00;99.90
22532;DHT22;11432;46.924;7.114;2023-02-21T04:56:34;2.00;99.90
22532;DHT22;11432;46.924;7.114;2023-02-21T04:58:59;1.90;99.90
22532;DHT22;11432;46.924;7.114;2023-02-21T05:01:28;1.90;99.90
22532;DHT22;11432;46.924;7.114;2023-02-21T05:03:56;2.00;99.90
22532;DHT22;11432;46.924;7.114;2023-02-21T05:06:24;2.00;99.90
22532;DHT22;11432;46.924;7.114;2023-02-21T05:08:50;2.00;99.90
22532;DHT22;11432;46.924;7.114;2023-02-21T05:11:17;2.00;99.90
22532;DHT22;11432;46.924;7.114;2023-02-21T05:13:42;2.00;99.90
22532;DHT22;11432;46.924;7.114;2023-02-21T05:16:08;2.00;99.90
22532;DHT22;11432;46.924;7.114;2023-02-21T05:18:34;1.90;99.90
22532;DHT22;11432;46.924;7.114;2023-02-21T05:21:02;1.80;99.90
22532;DHT22;11432;46.924;7.114;2023-02-21T05:23:27;1.80;99.90
22532;DHT22;11432;46.924;7.114;2023-02-21T05:26:09;1.80;99.90
22532;DHT22;11432;46.924;7.114;2023-02-21T05:28:36;1.80;99.90
22532;DHT22;11432;46.924;7.114;2023-02-21T05:31:03;1.70;99.90
22532;DHT22;11432;46.924;7.114;2023-02-21T05:33:29;1.80;99.90
22532;DHT22;11432;46.924;7.114;2023-02-21T05:35:55;1.70;99.90
22532;DHT22;11432;46.924;7.114;2023-02-21T05:38:22;1.70;99.90
22532;DHT22;11432;46.924;7.114;2023-02-21T05:40:49;1.60;99.90
22532;DHT22;11432;46.924;7.114;2023-02-21T05:43:15;1.60;99.90
22532;DHT22;11432;46.924;7.114;2023-02-21T05:45:41;1.60;99.90
22532;DHT22;11432;46.924;7.114;2023-02-21T05:48:06;1.60;99.90
22532;DHT22;11432;46.924;7.114;2023-02-21T05:50:32;1.50;99.90
22532;DHT22;11432;46.924;7.114;2023-02-21T05:52:59;1.50;99.90
22532;DHT22;11432;46.924;7.114;2023-02-21T05:55:25;1.50;99.90
22532;DHT22;11432;46.924;7.114;2023-02-21T05:57:51;1.50;99.90
22532;DHT22;11432;46.924;7.114;2023-02-21T06:00:18;1.50;99.90
22532;DHT22;11432;46.924;7.114;2023-02-21T06:02:44;1.50;99.90
22532;DHT22;11432;46.924;7.114;2023-02-21T06:05:11;1.40;99.90
22532;DHT22;11432;46.924;7.114;2023-02-21T06:07:36;1.40;99.90
22532;DHT22;11432;46.924;7.114;2023-02-21T06:10:03;1.40;99.90
22532;DHT22;11432;46.924;7.114;2023-02-21T06:12:28;1.50;99.90
22532;DHT22;11432;46.924;7.114;2023-02-21T06:14:54;1.50;99.90
22532;DHT22;11432;46.924;7.114;2023-02-21T06:17:19;1.50;99.90
22532;DHT22;11432;46.924;7.114;2023-02-21T06:19:45;1.50;99.90
22532;DHT22;11432;46.924;7.114;2023-02-21T06:22:11;1.60;99.90
22532;DHT22;11432;46.924;7.114;2023-02-21T06:24:36;1.60;99.90
22532;DHT22;11432;46.924;7.114;2023-02-21T06:27:02;1.50;99.90
22532;DHT22;11432;46.924;7.114;2023-02-21T06:29:28;1.50;99.90
22532;DHT22;11432;46.924;7.114;2023-02-21T06:31:57;1.50;99.90
22532;DHT22;11432;46.924;7.114;2023-02-21T06:34:24;1.50;99.90
22532;DHT22;11432;46.924;7.114;2023-02-21T06:36:54;1.50;99.90
22532;DHT22;11432;46.924;7.114;2023-02-21T06:39:21;1.50;99.90
22532;DHT22;11432;46.924;7.114;2023-02-21T06:41:49;1.60;99.90
22532;DHT22;11432;46.924;7.114;2023-02-21T06:44:15;1.60;99.90
22532;DHT22;11432;46.924;7.114;2023-02-21T06:46:41;1.60;99.90
22532;DHT22;11432;46.924;7.114;2023-02-21T06:49:08;1.60;99.90
22532;DHT22;11432;46.924;7.114;2023-02-21T06:51:38;1.50;99.90
22532;DHT22;11432;46.924;7.114;2023-02-21T06:54:05;1.40;99.90
22532;DHT22;11432;46.924;7.114;2023-02-21T06:56:32;1.40;99.90
22532;DHT22;11432;46.924;7.114;2023-02-21T06:58:58;1.40;99.90
22532;DHT22;11432;46.924;7.114;2023-02-21T07:01:25;1.50;99.90
22532;DHT22;11432;46.924;7.114;2023-02-21T07:03:52;1.50;99.90
22532;DHT22;11432;46.924;7.114;2023-02-21T07:06:18;1.60;99.90
22532;DHT22;11432;46.924;7.114;2023-02-21T07:08:44;1.60;99.90
22532;DHT22;11432;46.924;7.114;2023-02-21T07:11:10;1.70;99.90
22532;DHT22;11432;46.924;7.114;2023-02-21T07:13:36;1.70;99.90
22532;DHT22;11432;46.924;7.114;2023-02-21T07:16:02;1.70;99.90
22532;DHT22;11432;46.924;7.114;2023-02-21T07:18:27;1.70;99.90
22532;DHT22;11432;46.924;7.114;2023-02-21T07:20:53;1.80;99.90
22532;DHT22;11432;46.924;7.114;2023-02-21T07:23:18;2.20;99.90
22532;DHT22;11432;46.924;7.114;2023-02-21T07:25:44;2.20;99.90
22532;DHT22;11432;46.924;7.114;2023-02-21T07:28:10;2.30;99.90
22532;DHT22;11432;46.924;7.114;2023-02-21T07:30:37;2.30;99.90
22532;DHT22;11432;46.924;7.114;2023-02-21T07:33:03;2.40;99.90
22532;DHT22;11432;46.924;7.114;2023-02-21T07:35:28;2.50;99.90
22532;DHT22;11432;46.924;7.114;2023-02-21T07:37:54;2.60;99.90
22532;DHT22;11432;46.924;7.114;2023-02-21T07:40:19;2.70;99.90
22532;DHT22;11432;46.924;7.114;2023-02-21T07:42:45;2.70;99.90
22532;DHT22;11432;46.924;7.114;2023-02-21T07:45:13;2.80;99.90
22532;DHT22;11432;46.924;7.114;2023-02-21T07:47:39;2.90;99.90
22532;DHT22;11432;46.924;7.114;2023-02-21T07:50:05;3.00;99.90
22532;DHT22;11432;46.924;7.114;2023-02-21T07:52:31;3.10;99.90
22532;DHT22;11432;46.924;7.114;2023-02-21T07:54:57;3.20;99.90
22532;DHT22;11432;46.924;7.114;2023-02-21T07:57:23;3.30;99.90
22532;DHT22;11432;46.924;7.114;2023-02-21T07:59:48;3.40;99.90
22532;DHT22;11432;46.924;7.114;2023-02-21T08:02:14;3.50;99.90
22532;DHT22;11432;46.924;7.114;2023-02-21T08:04:40;3.60;99.90
22532;DHT22;11432;46.924;7.114;2023-02-21T08:07:07;3.70;99.90
22532;DHT22;11432;46.924;7.114;2023-02-21T08:09:34;3.80;99.90
22532;DHT22;11432;46.924;7.114;2023-02-21T08:12:00;4.00;99.90
22532;DHT22;11432;46.924;7.114;2023-02-21T08:14:25;4.10;63.40
22532;DHT22;11432;46.924;7.114;2023-02-21T08:16:51;4.20;99.90
22532;DHT22;11432;46.924;7.114;2023-02-21T08:19:16;4.30;99.90
22532;DHT22;11432;46.924;7.114;2023-02-21T08:21:46;4.30;99.90
22532;DHT22;11432;46.924;7.114;2023-02-21T08:24:13;4.40;99.90
22532;DHT22;11432;46.924;7.114;2023-02-21T08:26:39;4.50;93.50
22532;DHT22;11432;46.924;7.114;2023-02-21T08:29:07;4.50;52.70
22532;DHT22;11432;46.924;7.114;2023-02-21T08:31:37;4.60;38.40
22532;DHT22;11432;46.924;7.114;2023-02-21T08:34:04;4.70;56.90
22532;DHT22;11432;46.924;7.114;2023-02-21T08:36:35;4.80;56.30
22532;DHT22;11432;46.924;7.114;2023-02-21T08:39:01;4.90;30.80
22532;DHT22;11432;46.924;7.114;2023-02-21T08:41:41;4.80;45.70
22532;DHT22;11432;46.924;7.114;2023-02-21T08:44:08;4.80;72.70
22532;DHT22;11432;46.924;7.114;2023-02-21T08:46:34;4.70;92.10
22532;DHT22;11432;46.924;7.114;2023-02-21T08:49:01;4.70;29.30
22532;DHT22;11432;46.924;7.114;2023-02-21T08:51:29;4.70;87.50
22532;DHT22;11432;46.924;7.114;2023-02-21T08:53:55;4.70;99.90
22532;DHT22;11432;46.924;7.114;2023-02-21T08:56:23;4.80;99.90
22532;DHT22;11432;46.924;7.114;2023-02-21T08:58:49;5.00;99.90
22532;DHT22;11432;46.924;7.114;2023-02-21T09:01:15;5.00;90.80
22532;DHT22;11432;46.924;7.114;2023-02-21T09:03:41;5.10;56.90
22532;DHT22;11432;46.924;7.114;2023-02-21T09:06:07;5.00;67.00
22532;DHT22;11432;46.924;7.114;2023-02-21T09:08:34;5.60;99.90
22532;DHT22;11432;46.924;7.114;2023-02-21T09:11:01;6.00;99.90
22532;DHT22;11432;46.924;7.114;2023-02-21T09:13:28;7.40;99.90
22532;DHT22;11432;46.924;7.114;2023-02-21T09:15:55;8.20;1.00
22532;DHT22;11432;46.924;7.114;2023-02-21T09:18:21;8.60;19.60
22532;DHT22;11432;46.924;7.114;2023-02-21T09:20:47;8.10;1.00
22532;DHT22;11432;46.924;7.114;2023-02-21T09:23:18;8.00;1.00
22532;DHT22;11432;46.924;7.114;2023-02-21T09:25:48;7.60;1.00
22532;DHT22;11432;46.924;7.114;2023-02-21T09:28:14;7.00;1.00
22532;DHT22;11432;46.924;7.114;2023-02-21T09:30:40;6.80;1.00
22532;DHT22;11432;46.924;7.114;2023-02-21T09:33:05;7.00;1.00
22532;DHT22;11432;46.924;7.114;2023-02-21T09:35:31;7.00;1.00
22532;DHT22;11432;46.924;7.114;2023-02-21T09:37:58;7.70;1.00
22532;DHT22;11432;46.924;7.114;2023-02-21T09:43:11;8.20;1.00
22532;DHT22;11432;46.924;7.114;2023-02-21T09:45:40;9.30;1.00
22532;DHT22;11432;46.924;7.114;2023-02-21T09:48:18;8.80;1.00
22532;DHT22;11432;46.924;7.114;2023-02-21T09:50:53;8.30;1.00
22532;DHT22;11432;46.924;7.114;2023-02-21T09:53:25;7.90;1.00
22532;DHT22;11432;46.924;7.114;2023-02-21T09:55:54;7.80;1.00
22532;DHT22;11432;46.924;7.114;2023-02-21T09:58:21;7.90;1.00
22532;DHT22;11432;46.924;7.114;2023-02-21T10:00:47;8.10;1.00
22532;DHT22;11432;46.924;7.114;2023-02-21T10:03:38;8.20;1.00
22532;DHT22;11432;46.924;7.114;2023-02-21T10:14:59;8.20;1.00
22532;DHT22;11432;46.924;7.114;2023-02-21T10:17:34;8.20;1.00
22532;DHT22;11432;46.924;7.114;2023-02-21T10:20:10;8.20;1.00
22532;DHT22;11432;46.924;7.114;2023-02-21T10:22:39;8.30;1.00
22532;DHT22;11432;46.924;7.114;2023-02-21T10:27:45;8.40;1.00
22532;DHT22;11432;46.924;7.114;2023-02-21T10:30:37;8.40;1.00
22532;DHT22;11432;46.924;7.114;2023-02-21T10:33:05;8.60;1.00
22532;DHT22;11432;46.924;7.114;2023-02-21T10:35:35;8.70;1.00
22532;DHT22;11432;46.924;7.114;2023-02-21T10:38:03;8.80;1.00
22532;DHT22;11432;46.924;7.114;2023-02-21T10:40:44;9.10;1.00
22532;DHT22;11432;46.924;7.114;2023-02-21T10:46:36;9.60;1.00
22532;DHT22;11432;46.924;7.114;2023-02-21T10:49:26;9.70;1.00
22532;DHT22;11432;46.924;7.114;2023-02-21T10:52:10;9.90;1.00
22532;DHT22;11432;46.924;7.114;2023-02-21T10:54:37;10.20;1.00
22532;DHT22;11432;46.924;7.114;2023-02-21T10:57:09;10.50;43.40
22532;DHT22;11432;46.924;7.114;2023-02-21T10:59:38;11.00;58.80
22532;DHT22;11432;46.924;7.114;2023-02-21T11:04:54;12.50;73.20
22532;DHT22;11432;46.924;7.114;2023-02-21T11:07:21;13.20;90.20
22532;DHT22;11432;46.924;7.114;2023-02-21T11:09:49;13.00;98.30
22532;DHT22;11432;46.924;7.114;2023-02-21T11:14:42;13.50;94.80
22532;DHT22;11432;46.924;7.114;2023-02-21T11:17:15;13.70;92.70
22532;DHT22;11432;46.924;7.114;2023-02-21T11:19:49;14.00;86.70
22532;DHT22;11432;46.924;7.114;2023-02-21T11:22:23;14.00;90.10
22532;DHT22;11432;46.924;7.114;2023-02-21T11:24:56;14.10;91.70
22532;DHT22;11432;46.924;7.114;2023-02-21T11:27:24;14.10;91.60
22532;DHT22;11432;46.924;7.114;2023-02-21T11:29:52;14.50;89.90
22532;DHT22;11432;46.924;7.114;2023-02-21T11:32:38;15.10;93.30
22532;DHT22;11432;46.924;7.114;2023-02-21T11:40:44;16.00;87.60
22532;DHT22;11432;46.924;7.114;2023-02-21T11:43:21;16.70;86.80
22532;DHT22;11432;46.924;7.114;2023-02-21T11:48:26;17.70;73.50
22532;DHT22;11432;46.924;7.114;2023-02-21T11:50:58;17.90;73.80
22532;DHT22;11432;46.924;7.114;2023-02-21T11:53:29;17.80;68.40
22532;DHT22;11432;46.924;7.114;2023-02-21T12:06:53;17.60;64.00
22532;DHT22;11432;46.924;7.114;2023-02-21T12:09:46;18.00;65.70
22532;DHT22;11432;46.924;7.114;2023-02-21T12:15:25;18.60;62.00
22532;DHT22;11432;46.924;7.114;2023-02-21T12:21:12;19.30;57.00
22532;DHT22;11432;46.924;7.114;2023-02-21T12:24:12;19.90;52.20
22532;DHT22;11432;46.924;7.114;2023-02-21T12:41:03;20.10;47.40
22532;DHT22;11432;46.924;7.114;2023-02-21T12:48:36;20.10;42.10
22532;DHT22;11432;46.924;7.114;2023-02-21T12:51:07;20.60;45.20
22532;DHT22;11432;46.924;7.114;2023-02-21T12:53:46;19.20;48.80
22532;DHT22;11432;46.924;7.114;2023-02-21T12:56:34;18.60;51.40
22532;DHT22;11432;46.924;7.114;2023-02-21T12:59:10;18.70;49.30
22532;DHT22;11432;46.924;7.114;2023-02-21T13:02:00;18.10;49.20
22532;DHT22;11432;46.924;7.114;2023-02-21T13:07:16;18.10;47.30
22532;DHT22;11432;46.924;7.114;2023-02-21T13:10:04;18.00;43.70
22532;DHT22;11432;46.924;7.114;2023-02-21T13:15:02;18.20;46.10
22532;DHT22;11432;46.924;7.114;2023-02-21T13:17:28;18.30;43.60
22532;DHT22;11432;46.924;7.114;2023-02-21T13:20:07;18.00;44.30
22532;DHT22;11432;46.924;7.114;2023-02-21T13:28:27;19.20;46.20
22532;DHT22;11432;46.924;7.114;2023-02-21T13:30:58;19.50;42.30
22532;DHT22;11432;46.924;7.114;2023-02-21T13:33:37;20.20;41.00
22532;DHT22;11432;46.924;7.114;2023-02-21T13:36:39;20.90;36.20
22532;DHT22;11432;46.924;7.114;2023-02-21T13:41:55;19.30;39.70
22532;DHT22;11432;46.924;7.114;2023-02-21T13:47:19;19.00;37.30
22532;DHT22;11432;46.924;7.114;2023-02-21T13:55:18;20.30;32.10
22532;DHT22;11432;46.924;7.114;2023-02-21T14:08:29;17.90;35.30
22532;DHT22;11432;46.924;7.114;2023-02-21T14:18:51;16.60;40.70
22532;DHT22;11432;46.924;7.114;2023-02-21T14:24:12;16.60;43.70
22532;DHT22;11432;46.924;7.114;2023-02-21T14:26:41;16.90;39.90
22532;DHT22;11432;46.924;7.114;2023-02-21T14:29:09;16.70;37.50
22532;DHT22;11432;46.924;7.114;2023-02-21T14:34:12;16.40;42.90
22532;DHT22;11432;46.924;7.114;2023-02-21T14:36:40;16.70;39.10
22532;DHT22;11432;46.924;7.114;2023-02-21T14:39:06;16.70;37.10
22532;DHT22;11432;46.924;7.114;2023-02-21T14:41:50;16.90;38.50
22532;DHT22;11432;46.924;7.114;2023-02-21T14:44:34;16.80;34.60
22532;DHT22;11432;46.924;7.114;2023-02-21T14:47:24;16.30;33.40
22532;DHT22;11432;46.924;7.114;2023-02-21T14:52:49;15.60;32.80
22532;DHT22;11432;46.924;7.114;2023-02-21T14:56:36;15.70;31.90
22532;DHT22;11432;46.924;7.114;2023-02-21T15:04:56;14.80;34.70
22532;DHT22;11432;46.924;7.114;2023-02-21T15:10:12;14.40;43.20
22532;DHT22;11432;46.924;7.114;2023-02-21T15:13:03;14.30;42.30
22532;DHT22;11432;46.924;7.114;2023-02-21T15:18:09;14.10;14.60
22532;DHT22;11432;46.924;7.114;2023-02-21T15:20:40;13.90;10.10
22532;DHT22;11432;46.924;7.114;2023-02-21T15:25:35;14.10;15.20
22532;DHT22;11432;46.924;7.114;2023-02-21T15:28:03;14.10;1.00
22532;DHT22;11432;46.924;7.114;2023-02-21T15:30:35;14.20;1.00
22532;DHT22;11432;46.924;7.114;2023-02-21T15:33:06;14.30;1.00
22532;DHT22;11432;46.924;7.114;2023-02-21T15:35:36;14.30;1.90
22532;DHT22;11432;46.924;7.114;2023-02-21T15:38:06;14.30;1.00
22532;DHT22;11432;46.924;7.114;2023-02-21T15:40:36;14.30;1.00
22532;DHT22;11432;46.924;7.114;2023-02-21T15:43:02;14.30;1.00
22532;DHT22;11432;46.924;7.114;2023-02-21T15:45:46;14.20;1.00
22532;DHT22;11432;46.924;7.114;2023-02-21T15:48:13;14.30;3.80
22532;DHT22;11432;46.924;7.114;2023-02-21T15:50:41;14.40;3.90
22532;DHT22;11432;46.924;7.114;2023-02-21T15:55:44;14.30;1.00
22532;DHT22;11432;46.924;7.114;2023-02-21T16:00:44;13.90;1.00
22532;DHT22;11432;46.924;7.114;2023-02-21T16:03:35;13.80;1.00
22532;DHT22;11432;46.924;7.114;2023-02-21T16:06:20;13.70;1.00
22532;DHT22;11432;46.924;7.114;2023-02-21T16:11:57;13.60;1.00
22532;DHT22;11432;46.924;7.114;2023-02-21T16:14:50;13.60;1.00
22532;DHT22;11432;46.924;7.114;2023-02-21T16:17:36;13.50;1.00
22532;DHT22;11432;46.924;7.114;2023-02-21T16:22:39;13.30;1.00
22532;DHT22;11432;46.924;7.114;2023-02-21T16:27:43;13.10;1.00
22532;DHT22;11432;46.924;7.114;2023-02-21T16:32:47;12.90;1.00
22532;DHT22;11432;46.924;7.114;2023-02-21T16:35:15;12.90;1.00
22532;DHT22;11432;46.924;7.114;2023-02-21T16:37:41;12.80;1.00
22532;DHT22;11432;46.924;7.114;2023-02-21T16:40:23;12.80;1.00
22532;DHT22;11432;46.924;7.114;2023-02-21T16:42:51;12.70;1.00
22532;DHT22;11432;46.924;7.114;2023-02-21T16:45:17;12.60;1.00
22532;DHT22;11432;46.924;7.114;2023-02-21T16:47:43;12.60;1.00
22532;DHT22;11432;46.924;7.114;2023-02-21T16:52:57;12.40;1.00
22532;DHT22;11432;46.924;7.114;2023-02-21T16:55:23;12.30;1.00
22532;DHT22;11432;46.924;7.114;2023-02-21T16:57:51;12.20;1.00
22532;DHT22;11432;46.924;7.114;2023-02-21T17:00:19;12.00;1.00
22532;DHT22;11432;46.924;7.114;2023-02-21T17:02:50;11.80;1.00
22532;DHT22;11432;46.924;7.114;2023-02-21T17:05:17;11.70;1.00
22532;DHT22;11432;46.924;7.114;2023-02-21T17:07:43;11.60;1.00
22532;DHT22;11432;46.924;7.114;2023-02-21T17:10:10;11.50;1.00
22532;DHT22;11432;46.924;7.114;2023-02-21T17:12:35;11.30;99.90
22532;DHT22;11432;46.924;7.114;2023-02-21T17:15:01;11.20;99.90
22532;DHT22;11432;46.924;7.114;2023-02-21T17:17:27;11.10;99.90
22532;DHT22;11432;46.924;7.114;2023-02-21T17:19:52;10.90;1.00
22532;DHT22;11432;46.924;7.114;2023-02-21T17:22:18;10.80;1.00
22532;DHT22;11432;46.924;7.114;2023-02-21T17:24:44;10.70;1.00
22532;DHT22;11432;46.924;7.114;2023-02-21T17:27:09;10.60;99.90
22532;DHT22;11432;46.924;7.114;2023-02-21T17:29:35;10.60;99.90
22532;DHT22;11432;46.924;7.114;2023-02-21T17:32:00;10.70;1.00
22532;DHT22;11432;46.924;7.114;2023-02-21T17:34:32;10.60;99.90
22532;DHT22;11432;46.924;7.114;2023-02-21T17:36:58;10.40;1.00
22532;DHT22;11432;46.924;7.114;2023-02-21T17:39:24;10.30;1.00
22532;DHT22;11432;46.924;7.114;2023-02-21T17:41:51;10.10;1.00
22532;DHT22;11432;46.924;7.114;2023-02-21T17:44:17;10.00;1.00
22532;DHT22;11432;46.924;7.114;2023-02-21T17:46:50;9.90;1.00
22532;DHT22;11432;46.924;7.114;2023-02-21T17:49:17;9.80;1.00
22532;DHT22;11432;46.924;7.114;2023-02-21T17:51:43;9.80;1.00
22532;DHT22;11432;46.924;7.114;2023-02-21T17:54:09;9.70;1.00
22532;DHT22;11432;46.924;7.114;2023-02-21T17:56:34;9.70;1.00
22532;DHT22;11432;46.924;7.114;2023-02-21T17:59:00;9.50;1.00
22532;DHT22;11432;46.924;7.114;2023-02-21T18:01:25;9.40;1.00
22532;DHT22;11432;46.924;7.114;2023-02-21T18:03:53;9.20;1.00
22532;DHT22;11432;46.924;7.114;2023-02-21T18:06:20;9.20;1.00
22532;DHT22;11432;46.924;7.114;2023-02-21T18:08:45;9.10;1.00
22532;DHT22;11432;46.924;7.114;2023-02-21T18:11:13;9.00;1.00
22532;DHT22;11432;46.924;7.114;2023-02-21T18:13:40;8.80;1.00
22532;DHT22;11432;46.924;7.114;2023-02-21T18:16:07;8.80;1.00
22532;DHT22;11432;46.924;7.114;2023-02-21T18:18:33;8.80;1.00
22532;DHT22;11432;46.924;7.114;2023-02-21T18:20:59;8.70;1.00
22532;DHT22;11432;46.924;7.114;2023-02-21T18:23:30;8.60;1.00
22532;DHT22;11432;46.924;7.114;2023-02-21T18:25:56;8.60;1.00
22532;DHT22;11432;46.924;7.114;2023-02-21T18:28:22;8.50;1.00
22532;DHT22;11432;46.924;7.114;2023-02-21T18:30:48;8.50;1.00
22532;DHT22;11432;46.924;7.114;2023-02-21T18:33:16;8.30;1.00
22532;DHT22;11432;46.924;7.114;2023-02-21T18:35:42;8.20;1.00
22532;DHT22;11432;46.924;7.114;2023-02-21T18:38:08;8.20;1.00
22532;DHT22;11432;46.924;7.114;2023-02-21T18:40:34;8.10;1.00
22532;DHT22;11432;46.924;7.114;2023-02-21T18:43:04;8.00;1.00
22532;DHT22;11432;46.924;7.114;2023-02-21T18:45:31;8.00;1.00
22532;DHT22;11432;46.924;7.114;2023-02-21T18:48:00;8.00;1.00
22532;DHT22;11432;46.924;7.114;2023-02-21T18:50:25;8.00;1.00
22532;DHT22;11432;46.924;7.114;2023-02-21T18:52:51;8.00;1.00
22532;DHT22;11432;46.924;7.114;2023-02-21T18:55:17;8.00;1.00
22532;DHT22;11432;46.924;7.114;2023-02-21T18:57:44;7.90;1.00
22532;DHT22;11432;46.924;7.114;2023-02-21T19:00:16;7.90;1.00
22532;DHT22;11432;46.924;7.114;2023-02-21T19:02:42;7.80;1.00
22532;DHT22;11432;46.924;7.114;2023-02-21T19:05:08;7.80;1.00
22532;DHT22;11432;46.924;7.114;2023-02-21T19:07:36;7.80;1.00
22532;DHT22;11432;46.924;7.114;2023-02-21T19:10:02;7.70;1.00
22532;DHT22;11432;46.924;7.114;2023-02-21T19:12:28;7.80;1.00
22532;DHT22;11432;46.924;7.114;2023-02-21T19:14:53;7.70;1.00
22532;DHT22;11432;46.924;7.114;2023-02-21T19:17:19;7.70;1.00
22532;DHT22;11432;46.924;7.114;2023-02-21T19:19:44;7.60;1.00